createdAt,value
2022-09-29T00:00:52.926Z,922.93
2022-09-29T00:01:53.532Z,922.86
2022-09-29T00:02:54.430Z,922.84
2022-09-29T00:03:55.264Z,922.86
2022-09-29T00:04:55.987Z,922.82
2022-09-29T00:05:56.475Z,922.85
2022-09-29T00:06:57.092Z,922.82
2022-09-29T00:07:57.727Z,922.81
2022-09-29T00:08:58.359Z,922.84
2022-09-29T00:09:59.291Z,922.89
2022-09-29T00:11:00.198Z,922.89
2022-09-29T00:12:00.809Z,922.88
2022-09-29T00:13:01.437Z,922.87
2022-09-29T00:14:02.368Z,922.88
2022-09-29T00:15:02.835Z,922.84
2022-09-29T00:16:03.494Z,922.84
2022-09-29T00:17:04.329Z,922.8
2022-09-29T00:18:19.793Z,922.82
2022-09-29T00:19:05.444Z,922.82
2022-09-29T00:20:05.632Z,922.82
2022-09-29T00:21:05.963Z,922.82
2022-09-29T00:22:06.896Z,922.84
2022-09-29T00:23:07.830Z,922.84
2022-09-29T00:24:08.801Z,922.84
2022-09-29T00:25:09.215Z,922.8
2022-09-29T00:26:09.430Z,922.79
2022-09-29T00:27:10.371Z,922.79
2022-09-29T00:28:10.984Z,922.83
2022-09-29T00:29:11.697Z,922.83
2022-09-29T00:30:12.622Z,922.8
2022-09-29T00:31:13.578Z,922.77
2022-09-29T00:32:14.091Z,922.75
2022-09-29T00:33:14.284Z,922.73
2022-09-29T00:34:14.556Z,922.73
2022-09-29T00:35:14.774Z,922.69
2022-09-29T00:36:15.256Z,922.68
2022-09-29T00:37:15.441Z,922.6
2022-09-29T00:38:15.627Z,922.61
2022-09-29T00:39:15.840Z,922.58
2022-09-29T00:40:16.162Z,922.56
2022-09-29T00:41:16.298Z,922.53
2022-09-29T00:42:17.229Z,922.53
2022-09-29T00:43:17.732Z,922.52
2022-09-29T00:44:18.381Z,922.57
2022-09-29T00:45:19.391Z,922.55
2022-09-29T00:46:19.497Z,922.6
2022-09-29T00:47:20.414Z,922.62
2022-09-29T00:48:21.308Z,922.61
2022-09-29T00:49:21.490Z,922.64
2022-09-29T00:50:22.539Z,922.65
2022-09-29T00:51:23.152Z,922.67
2022-09-29T00:52:24.032Z,922.71
2022-09-29T00:53:24.366Z,922.69
2022-09-29T00:54:24.594Z,922.73
2022-09-29T00:55:25.321Z,922.77
2022-09-29T00:56:25.549Z,922.74
2022-09-29T00:57:25.755Z,922.79
2022-09-29T00:58:26.365Z,922.79
2022-09-29T00:59:27.002Z,922.78
2022-09-29T01:00:27.959Z,922.75
2022-09-29T01:01:28.424Z,922.73
2022-09-29T01:02:29.260Z,922.73
2022-09-29T01:03:29.765Z,922.73
2022-09-29T01:04:30.381Z,922.66
2022-09-29T01:05:31.377Z,922.62
2022-09-29T01:06:31.865Z,922.63
2022-09-29T01:07:32.084Z,922.58
2022-09-29T01:08:32.961Z,922.61
2022-09-29T01:09:33.206Z,922.62
2022-09-29T01:10:33.530Z,922.59
2022-09-29T01:11:33.729Z,922.61
2022-09-29T01:12:34.045Z,922.61
2022-09-29T01:13:34.955Z,922.57
2022-09-29T01:14:35.985Z,922.56
2022-09-29T01:15:36.421Z,922.58
2022-09-29T01:16:36.729Z,922.58
2022-09-29T01:17:36.963Z,922.6
2022-09-29T01:18:37.445Z,922.58
2022-09-29T01:19:38.337Z,922.62
2022-09-29T01:20:38.556Z,922.67
2022-09-29T01:21:39.585Z,922.66
2022-09-29T01:22:40.505Z,922.63
2022-09-29T01:23:40.715Z,922.58
2022-09-29T01:24:41.672Z,922.6
2022-09-29T01:25:42.342Z,922.62
2022-09-29T01:26:42.537Z,922.59
2022-09-29T01:27:43.022Z,922.6
2022-09-29T01:28:43.621Z,922.54
2022-09-29T01:29:44.330Z,922.53
2022-09-29T01:30:45.217Z,922.45
2022-09-29T01:31:45.950Z,922.44
2022-09-29T01:32:46.423Z,922.43
2022-09-29T01:33:47.331Z,922.45
2022-09-29T01:34:47.648Z,922.5
2022-09-29T01:35:48.708Z,922.47
2022-09-29T01:36:48.901Z,922.48
2022-09-29T01:37:49.216Z,922.46
2022-09-29T01:38:49.408Z,922.47
2022-09-29T01:39:50.323Z,922.46
2022-09-29T01:40:50.582Z,922.45
2022-09-29T01:41:51.493Z,922.49
2022-09-29T01:42:51.703Z,922.52
2022-09-29T01:43:52.318Z,922.51
2022-09-29T01:44:52.919Z,922.52
2022-09-29T01:45:53.402Z,922.54
2022-09-29T01:46:53.793Z,922.51
2022-09-29T01:47:54.427Z,922.52
2022-09-29T01:48:55.318Z,922.56
2022-09-29T01:49:55.957Z,922.59
2022-09-29T01:50:56.895Z,922.54
2022-09-29T01:51:57.808Z,922.55
2022-09-29T01:52:58.720Z,922.48
2022-09-29T01:53:58.957Z,922.49
2022-09-29T01:54:59.707Z,922.46
2022-09-29T01:55:59.981Z,922.48
2022-09-29T01:57:00.181Z,922.45
2022-09-29T01:58:01.066Z,922.51
2022-09-29T01:59:01.254Z,922.49
2022-09-29T02:00:02.161Z,922.48
2022-09-29T02:01:03.081Z,922.53
2022-09-29T02:02:03.449Z,922.52
2022-09-29T02:03:03.613Z,922.57
2022-09-29T02:04:04.278Z,922.55
2022-09-29T02:05:05.359Z,922.58
2022-09-29T02:06:06.089Z,922.59
2022-09-29T02:07:06.994Z,922.56
2022-09-29T02:08:07.906Z,922.54
2022-09-29T02:09:08.813Z,922.51
2022-09-29T02:10:09.046Z,922.51
2022-09-29T02:11:09.229Z,922.48
2022-09-29T02:12:10.138Z,922.52
2022-09-29T02:13:11.060Z,922.51
2022-09-29T02:14:12.003Z,922.5
2022-09-29T02:15:12.487Z,922.54
2022-09-29T02:16:12.639Z,922.52
2022-09-29T02:17:13.514Z,922.54
2022-09-29T02:18:14.088Z,922.56
2022-09-29T02:19:15.001Z,922.57
2022-09-29T02:20:15.193Z,922.56
2022-09-29T02:21:15.409Z,922.58
2022-09-29T02:22:15.751Z,922.55
2022-09-29T02:23:16.355Z,922.58
2022-09-29T02:24:16.990Z,922.58
2022-09-29T02:25:17.916Z,922.57
2022-09-29T02:26:18.901Z,922.57
2022-09-29T02:27:19.522Z,922.63
2022-09-29T02:28:20.008Z,922.64
2022-09-29T02:29:20.902Z,922.64
2022-09-29T02:30:21.791Z,922.61
2022-09-29T02:31:22.442Z,922.62
2022-09-29T02:32:22.817Z,922.58
2022-09-29T02:33:23.041Z,922.59
2022-09-29T02:34:23.972Z,922.54
2022-09-29T02:35:24.461Z,922.57
2022-09-29T02:36:24.763Z,922.57
2022-09-29T02:37:25.372Z,922.54
2022-09-29T02:38:25.565Z,922.53
2022-09-29T02:39:26.473Z,922.52
2022-09-29T02:40:26.841Z,922.52
2022-09-29T02:41:27.299Z,922.49
2022-09-29T02:42:27.498Z,922.45
2022-09-29T02:43:28.412Z,922.42
2022-09-29T02:44:28.907Z,922.42
2022-09-29T02:45:29.199Z,922.4
2022-09-29T02:46:29.630Z,922.43
2022-09-29T02:47:29.828Z,922.42
2022-09-29T02:48:30.508Z,922.41
2022-09-29T02:49:31.419Z,922.43
2022-09-29T02:50:31.621Z,922.4
2022-09-29T02:51:32.129Z,922.42
2022-09-29T02:52:32.311Z,922.41
2022-09-29T02:53:32.500Z,922.39
2022-09-29T02:54:33.413Z,922.43
2022-09-29T02:55:33.637Z,922.47
2022-09-29T02:56:34.394Z,922.5
2022-09-29T02:57:35.298Z,922.46
2022-09-29T02:58:35.492Z,922.44
2022-09-29T02:59:36.450Z,922.45
2022-09-29T03:00:37.435Z,922.41
2022-09-29T03:01:37.609Z,922.35
2022-09-29T03:02:38.517Z,922.38
2022-09-29T03:03:38.916Z,922.39
2022-09-29T03:04:39.241Z,922.43
2022-09-29T03:05:39.852Z,922.46
2022-09-29T03:06:40.439Z,922.43
2022-09-29T03:07:41.373Z,922.44
2022-09-29T03:08:41.568Z,922.43
2022-09-29T03:09:42.489Z,922.4
2022-09-29T03:10:42.722Z,922.41
2022-09-29T03:11:43.314Z,922.4
2022-09-29T03:12:43.941Z,922.4
2022-09-29T03:13:44.570Z,922.36
2022-09-29T03:14:45.477Z,922.36
2022-09-29T03:15:46.387Z,922.33
2022-09-29T03:16:46.682Z,922.36
2022-09-29T03:17:47.573Z,922.32
2022-09-29T03:18:47.924Z,922.36
2022-09-29T03:19:48.408Z,922.35
2022-09-29T03:20:48.594Z,922.34
2022-09-29T03:21:48.813Z,922.31
2022-09-29T03:22:49.299Z,922.29
2022-09-29T03:23:51.336Z,922.2
2022-09-29T03:24:50.368Z,922.16
2022-09-29T03:25:51.002Z,922.15
2022-09-29T03:26:51.277Z,922.16
2022-09-29T03:27:52.179Z,922.15
2022-09-29T03:28:52.379Z,922.17
2022-09-29T03:29:52.695Z,922.19
2022-09-29T03:30:53.183Z,922.22
2022-09-29T03:31:53.402Z,922.21
2022-09-29T03:32:53.904Z,922.23
2022-09-29T03:33:54.819Z,922.26
2022-09-29T03:34:55.451Z,922.29
2022-09-29T03:35:56.359Z,922.29
2022-09-29T03:36:56.961Z,922.31
2022-09-29T03:37:57.872Z,922.27
2022-09-29T03:38:58.488Z,922.26
2022-09-29T03:39:58.694Z,922.25
2022-09-29T03:40:59.716Z,922.22
2022-09-29T03:42:00.644Z,922.3
2022-09-29T03:43:01.149Z,922.32
2022-09-29T03:44:01.481Z,922.38
2022-09-29T03:45:02.388Z,922.44
2022-09-29T03:46:03.350Z,922.46
2022-09-29T03:47:03.445Z,922.47
2022-09-29T03:48:04.363Z,922.44
2022-09-29T03:49:04.638Z,922.46
2022-09-29T03:50:05.140Z,922.46
2022-09-29T03:51:05.330Z,922.48
2022-09-29T03:52:06.297Z,922.5
2022-09-29T03:53:06.786Z,922.49
2022-09-29T03:54:07.422Z,922.48
2022-09-29T03:55:07.609Z,922.46
2022-09-29T03:56:08.520Z,922.46
2022-09-29T03:57:08.805Z,922.45
2022-09-29T03:58:08.999Z,922.42
2022-09-29T03:59:09.325Z,922.42
2022-09-29T04:00:09.738Z,922.44
2022-09-29T04:01:10.153Z,922.44
2022-09-29T04:02:10.560Z,922.4
2022-09-29T04:03:11.014Z,922.39
2022-09-29T04:04:12.064Z,922.37
2022-09-29T04:05:12.247Z,922.33
2022-09-29T04:06:12.581Z,922.36
2022-09-29T04:07:12.878Z,922.34
2022-09-29T04:08:13.514Z,922.37
2022-09-29T04:09:14.178Z,922.4
2022-09-29T04:10:15.211Z,922.41
2022-09-29T04:11:15.420Z,922.38
2022-09-29T04:12:16.035Z,922.39
2022-09-29T04:13:19.744Z,922.36
2022-09-29T04:14:16.649Z,922.33
2022-09-29T04:15:16.853Z,922.36
2022-09-29T04:16:17.788Z,922.39
2022-09-29T04:17:18.104Z,922.35
2022-09-29T04:18:18.729Z,922.33
2022-09-29T04:19:19.378Z,922.36
2022-09-29T04:20:20.036Z,922.36
2022-09-29T04:21:20.647Z,922.38
2022-09-29T04:22:21.159Z,922.41
2022-09-29T04:23:22.071Z,922.4
2022-09-29T04:24:22.702Z,922.4
2022-09-29T04:25:22.914Z,922.37
2022-09-29T04:26:23.827Z,922.36
2022-09-29T04:27:24.250Z,922.34
2022-09-29T04:28:24.751Z,922.37
2022-09-29T04:29:25.366Z,922.36
2022-09-29T04:30:25.980Z,922.32
2022-09-29T04:31:26.623Z,922.31
2022-09-29T04:32:26.611Z,922.3
2022-09-29T04:33:27.630Z,922.3
2022-09-29T04:34:27.829Z,922.24
2022-09-29T04:35:28.443Z,922.25
2022-09-29T04:36:29.509Z,922.23
2022-09-29T04:37:29.695Z,922.23
2022-09-29T04:38:30.604Z,922.21
2022-09-29T04:39:31.517Z,922.24
2022-09-29T04:40:32.585Z,922.22
2022-09-29T04:41:32.885Z,922.25
2022-09-29T04:42:33.502Z,922.26
2022-09-29T04:43:34.408Z,922.3
2022-09-29T04:44:35.320Z,922.34
2022-09-29T04:45:36.254Z,922.33
2022-09-29T04:46:36.482Z,922.31
2022-09-29T04:47:36.776Z,922.32
2022-09-29T04:48:37.022Z,922.32
2022-09-29T04:49:37.941Z,922.34
2022-09-29T04:50:38.573Z,922.33
2022-09-29T04:51:39.202Z,922.28
2022-09-29T04:52:39.835Z,922.26
2022-09-29T04:53:40.459Z,922.27
2022-09-29T04:54:41.363Z,922.22
2022-09-29T04:55:42.283Z,922.23
2022-09-29T04:56:43.219Z,922.24
2022-09-29T04:57:43.489Z,922.25
2022-09-29T04:58:43.692Z,922.24
2022-09-29T04:59:44.325Z,922.24
2022-09-29T05:00:44.689Z,922.21
2022-09-29T05:01:44.979Z,922.24
2022-09-29T05:02:48.991Z,922.22
2022-09-29T05:03:45.491Z,922.2
2022-09-29T05:04:46.131Z,922.16
2022-09-29T05:05:46.357Z,922.17
2022-09-29T05:06:46.769Z,922.17
2022-09-29T05:07:47.063Z,922.2
2022-09-29T05:08:47.968Z,922.19
2022-09-29T05:09:48.148Z,922.17
2022-09-29T05:10:49.055Z,922.15
2022-09-29T05:11:49.269Z,922.16
2022-09-29T05:12:49.741Z,922.14
2022-09-29T05:13:49.956Z,922.11
2022-09-29T05:14:50.866Z,922.13
2022-09-29T05:15:51.479Z,922.09
2022-09-29T05:16:51.682Z,922.08
2022-09-29T05:17:52.687Z,922.1
2022-09-29T05:18:53.599Z,922.08
2022-09-29T05:19:53.825Z,922.05
2022-09-29T05:21:10.523Z,922.05
2022-09-29T05:21:54.310Z,922.01
2022-09-29T05:22:54.961Z,922.05
2022-09-29T05:23:55.572Z,922.03
2022-09-29T05:24:56.203Z,922.04
2022-09-29T05:25:56.698Z,922.01
2022-09-29T05:26:58.576Z,922.03
2022-09-29T05:27:58.393Z,922.05
2022-09-29T05:28:59.309Z,922.05
2022-09-29T05:29:59.549Z,922.08
2022-09-29T05:31:00.037Z,922.07
2022-09-29T05:32:01.045Z,922.07
2022-09-29T05:33:01.989Z,922.05
2022-09-29T05:34:02.888Z,922.07
2022-09-29T05:35:03.917Z,922.06
2022-09-29T05:36:04.517Z,922.06
2022-09-29T05:37:04.704Z,922.06
2022-09-29T05:38:05.091Z,922.01
2022-09-29T05:39:06.022Z,921.98
2022-09-29T05:40:07.105Z,921.97
2022-09-29T05:41:07.481Z,921.94
2022-09-29T05:42:08.439Z,921.89
2022-09-29T05:43:08.619Z,921.9
2022-09-29T05:44:09.116Z,921.93
2022-09-29T05:45:10.044Z,921.91
2022-09-29T05:46:11.177Z,921.89
2022-09-29T05:47:11.825Z,921.94
2022-09-29T05:48:12.505Z,921.94
2022-09-29T05:49:13.200Z,921.94
2022-09-29T05:50:14.010Z,921.98
2022-09-29T05:51:14.206Z,921.98
2022-09-29T05:52:15.101Z,921.96
2022-09-29T05:53:15.347Z,921.95
2022-09-29T05:54:15.538Z,921.97
2022-09-29T05:55:15.736Z,921.95
2022-09-29T05:56:16.352Z,922
2022-09-29T05:57:16.691Z,922.04
2022-09-29T05:58:16.762Z,922.09
2022-09-29T05:59:17.149Z,922.09
2022-09-29T06:00:17.809Z,922.1
2022-09-29T06:01:18.136Z,922.1
2022-09-29T06:02:18.652Z,922.07
2022-09-29T06:03:19.621Z,922.03
2022-09-29T06:04:20.535Z,922.01
2022-09-29T06:05:21.399Z,922.02
2022-09-29T06:06:21.591Z,922.01
2022-09-29T06:07:22.513Z,922.02
2022-09-29T06:08:22.826Z,922.02
2022-09-29T06:09:23.715Z,922.03
2022-09-29T06:10:24.333Z,922.07
2022-09-29T06:11:24.977Z,922.06
2022-09-29T06:12:25.595Z,922.09
2022-09-29T06:13:26.087Z,922.1
2022-09-29T06:14:26.294Z,922.05
2022-09-29T06:15:27.213Z,922.07
2022-09-29T06:16:27.487Z,922.05
2022-09-29T06:17:28.456Z,922.06
2022-09-29T06:18:29.490Z,922.02
2022-09-29T06:19:30.407Z,922.05
2022-09-29T06:20:30.545Z,922.04
2022-09-29T06:21:31.456Z,922.09
2022-09-29T06:22:32.411Z,922.05
2022-09-29T06:23:32.795Z,922.09
2022-09-29T06:24:33.141Z,922.06
2022-09-29T06:25:33.738Z,922.1
2022-09-29T06:26:33.924Z,922.06
2022-09-29T06:27:34.862Z,922.07
2022-09-29T06:28:35.411Z,922.13
2022-09-29T06:29:35.913Z,922.09
2022-09-29T06:30:36.631Z,922.16
2022-09-29T06:31:37.669Z,922.16
2022-09-29T06:32:38.322Z,922.15
2022-09-29T06:33:39.258Z,922.16
2022-09-29T06:34:40.149Z,922.17
2022-09-29T06:35:40.365Z,922.13
2022-09-29T06:36:41.304Z,922.12
2022-09-29T06:37:41.528Z,922.08
2022-09-29T06:38:41.879Z,922.13
2022-09-29T06:39:42.089Z,922.12
2022-09-29T06:40:42.654Z,922.12
2022-09-29T06:41:43.216Z,922.09
2022-09-29T06:42:44.293Z,922.06
2022-09-29T06:43:44.511Z,922.08
2022-09-29T06:44:45.148Z,922.1
2022-09-29T06:45:46.163Z,922.08
2022-09-29T06:46:46.671Z,922.11
2022-09-29T06:47:47.066Z,922.04
2022-09-29T06:48:47.484Z,922.04
2022-09-29T06:49:50.710Z,922.02
2022-09-29T06:50:57.134Z,922
2022-09-29T06:51:48.984Z,921.99
2022-09-29T06:53:01.067Z,921.94
2022-09-29T06:53:50.746Z,921.93
2022-09-29T06:54:50.813Z,921.91
2022-09-29T06:55:51.417Z,921.95
2022-09-29T06:56:51.635Z,921.96
2022-09-29T06:57:52.144Z,921.94
2022-09-29T06:58:52.896Z,921.96
2022-09-29T06:59:53.847Z,921.98
2022-09-29T07:00:54.862Z,921.98
2022-09-29T07:01:54.989Z,922
2022-09-29T07:02:56.018Z,922
2022-09-29T07:03:56.231Z,921.99
2022-09-29T07:04:56.751Z,922.01
2022-09-29T07:06:20.948Z,922.03
2022-09-29T07:06:57.977Z,922.05
2022-09-29T07:08:01.010Z,922.04
2022-09-29T07:08:58.355Z,922.02
2022-09-29T07:09:58.950Z,922
2022-09-29T07:10:59.139Z,921.96
2022-09-29T07:11:59.477Z,922
2022-09-29T07:12:59.740Z,922.03
2022-09-29T07:13:59.953Z,922
2022-09-29T07:15:00.771Z,921.98
2022-09-29T07:16:01.865Z,921.99
2022-09-29T07:17:02.119Z,922.01
2022-09-29T07:18:02.485Z,922.07
2022-09-29T07:19:02.806Z,922.07
2022-09-29T07:20:03.356Z,922.1
2022-09-29T07:21:03.985Z,922.1
2022-09-29T07:22:04.479Z,922.13
2022-09-29T07:23:05.434Z,922.08
2022-09-29T07:24:05.632Z,922.07
2022-09-29T07:25:06.148Z,922.09
2022-09-29T07:26:06.390Z,922.06
2022-09-29T07:27:07.036Z,922.08
2022-09-29T07:28:07.272Z,922.09
2022-09-29T07:29:10.280Z,922.12
2022-09-29T07:30:08.481Z,922.12
2022-09-29T07:31:14.032Z,922.13
2022-09-29T07:32:19.369Z,922.15
2022-09-29T07:33:10.578Z,922.09
2022-09-29T07:34:10.768Z,922.08
2022-09-29T07:35:11.341Z,922.1
2022-09-29T07:36:11.884Z,922.08
2022-09-29T07:37:12.903Z,922.07
2022-09-29T07:38:13.847Z,922.09
2022-09-29T07:39:14.962Z,922.09
2022-09-29T07:40:15.746Z,922.08
2022-09-29T07:41:16.240Z,922.11
2022-09-29T07:42:17.167Z,922.09
2022-09-29T07:43:17.710Z,922.09
2022-09-29T07:44:18.489Z,922.14
2022-09-29T07:45:19.085Z,922.16
2022-09-29T07:46:19.311Z,922.12
2022-09-29T07:47:19.888Z,922.14
2022-09-29T07:48:20.360Z,922.15
2022-09-29T07:49:21.395Z,922.18
2022-09-29T07:50:21.512Z,922.13
2022-09-29T07:51:21.940Z,922.15
2022-09-29T07:52:22.129Z,922.16
2022-09-29T07:53:22.764Z,922.16
2022-09-29T07:54:28.569Z,922.16
2022-09-29T07:55:23.877Z,922.23
2022-09-29T07:56:24.799Z,922.21
2022-09-29T07:57:25.009Z,922.27
2022-09-29T07:58:25.633Z,922.21
2022-09-29T07:59:26.236Z,922.24
2022-09-29T08:00:26.619Z,922.26
2022-09-29T08:01:26.945Z,922.29
2022-09-29T08:02:28.051Z,922.26
2022-09-29T08:03:28.310Z,922.3
2022-09-29T08:04:29.213Z,922.29
2022-09-29T08:05:29.427Z,922.31
2022-09-29T08:06:30.026Z,922.36
2022-09-29T08:07:30.663Z,922.39
2022-09-29T08:08:30.893Z,922.39
2022-09-29T08:09:42.211Z,922.4
2022-09-29T08:10:51.365Z,922.41
2022-09-29T08:11:43.178Z,922.42
2022-09-29T08:12:44.153Z,922.41
2022-09-29T08:13:43.545Z,922.39
2022-09-29T08:14:44.361Z,922.37
2022-09-29T08:15:44.659Z,922.41
2022-09-29T08:16:44.932Z,922.39
2022-09-29T08:17:45.248Z,922.4
2022-09-29T08:18:45.738Z,922.38
2022-09-29T08:19:45.907Z,922.39
2022-09-29T08:20:46.839Z,922.37
2022-09-29T08:21:47.196Z,922.41
2022-09-29T08:22:47.823Z,922.43
2022-09-29T08:23:48.484Z,922.4
2022-09-29T08:24:48.974Z,922.44
2022-09-29T08:25:57.472Z,922.46
2022-09-29T08:26:50.585Z,922.52
2022-09-29T08:27:55.520Z,922.54
2022-09-29T08:29:01.977Z,922.51
2022-09-29T08:30:05.618Z,922.54
2022-09-29T08:31:06.241Z,922.57
2022-09-29T08:32:07.136Z,922.58
2022-09-29T08:33:07.861Z,922.62
2022-09-29T08:34:08.482Z,922.59
2022-09-29T08:35:09.229Z,922.62
2022-09-29T08:36:09.872Z,922.64
2022-09-29T08:37:10.484Z,922.66
2022-09-29T08:38:11.110Z,922.66
2022-09-29T08:39:11.323Z,922.7
2022-09-29T08:40:11.510Z,922.67
2022-09-29T08:41:12.084Z,922.68
2022-09-29T08:42:12.579Z,922.64
2022-09-29T08:43:13.924Z,922.69
2022-09-29T08:44:29.098Z,922.68
2022-09-29T08:45:16.552Z,922.66
2022-09-29T08:46:15.472Z,922.64
2022-09-29T08:47:15.133Z,922.65
2022-09-29T08:48:22.400Z,922.64
2022-09-29T08:49:25.074Z,922.63
2022-09-29T08:50:17.414Z,922.68
2022-09-29T08:51:18.111Z,922.69
2022-09-29T08:52:18.827Z,922.74
2022-09-29T08:53:26.994Z,922.72
2022-09-29T08:54:29.612Z,922.79
2022-09-29T08:55:22.085Z,922.8
2022-09-29T08:56:21.524Z,922.8
2022-09-29T08:57:22.554Z,922.8
2022-09-29T08:58:23.469Z,922.8
2022-09-29T08:59:24.122Z,922.82
2022-09-29T09:00:25.098Z,922.75
2022-09-29T09:01:26.141Z,922.77
2022-09-29T09:02:26.582Z,922.76
2022-09-29T09:03:27.173Z,922.71
2022-09-29T09:04:27.772Z,922.75
2022-09-29T09:05:28.712Z,922.74
2022-09-29T09:06:29.349Z,922.8
2022-09-29T09:07:29.559Z,922.74
2022-09-29T09:08:30.141Z,922.8
2022-09-29T09:09:30.982Z,922.85
2022-09-29T09:10:31.983Z,922.86
2022-09-29T09:11:32.236Z,922.84
2022-09-29T09:12:33.155Z,922.86
2022-09-29T09:13:33.787Z,922.84
2022-09-29T09:14:34.706Z,922.82
2022-09-29T09:15:35.607Z,922.83
2022-09-29T09:16:36.289Z,922.84
2022-09-29T09:17:37.231Z,922.93
2022-09-29T09:18:38.131Z,922.94
2022-09-29T09:19:38.486Z,922.97
2022-09-29T09:20:39.504Z,922.96
2022-09-29T09:21:40.427Z,922.98
2022-09-29T09:22:41.120Z,923.05
2022-09-29T09:23:41.320Z,923.05
2022-09-29T09:24:41.751Z,923.06
2022-09-29T09:25:41.980Z,923.07
2022-09-29T09:26:42.434Z,923.09
2022-09-29T09:27:43.495Z,923.09
2022-09-29T09:28:44.429Z,923.07
2022-09-29T09:29:45.409Z,923.09
2022-09-29T09:30:46.319Z,923.05
2022-09-29T09:31:47.062Z,923.05
2022-09-29T09:32:47.715Z,923.04
2022-09-29T09:33:57.441Z,923.04
2022-09-29T09:34:48.440Z,923.04
2022-09-29T09:35:57.458Z,923.03
2022-09-29T09:36:57.603Z,923.05
2022-09-29T09:37:50.719Z,923.04
2022-09-29T09:38:50.978Z,922.99
2022-09-29T09:39:51.950Z,922.96
2022-09-29T09:40:52.697Z,922.94
2022-09-29T09:41:52.962Z,922.99
2022-09-29T09:42:53.160Z,922.98
2022-09-29T09:43:53.753Z,922.98
2022-09-29T09:44:54.529Z,923.01
2022-09-29T09:45:55.504Z,923.03
2022-09-29T09:46:56.004Z,922.99
2022-09-29T09:47:56.203Z,922.96
2022-09-29T09:48:56.470Z,922.97
2022-09-29T09:49:56.972Z,922.96
2022-09-29T09:50:58.057Z,922.97
2022-09-29T09:51:58.984Z,922.96
2022-09-29T09:52:59.411Z,922.97
2022-09-29T09:54:00.166Z,923
2022-09-29T09:55:00.733Z,923.05
2022-09-29T09:56:00.966Z,923.1
2022-09-29T09:57:01.242Z,923.09
2022-09-29T09:58:01.749Z,923.07
2022-09-29T09:59:02.349Z,923.03
2022-09-29T10:00:03.306Z,923.01
2022-09-29T10:01:04.258Z,923.02
2022-09-29T10:02:05.121Z,923
2022-09-29T10:03:05.749Z,923.05
2022-09-29T10:04:06.424Z,923.05
2022-09-29T10:05:08.891Z,923.03
2022-09-29T10:06:08.158Z,923.05
2022-09-29T10:07:09.074Z,923.04
2022-09-29T10:08:09.567Z,923
2022-09-29T10:09:10.255Z,923
2022-09-29T10:10:10.400Z,923.02
2022-09-29T10:11:10.589Z,923.02
2022-09-29T10:12:10.856Z,923.04
2022-09-29T10:13:11.341Z,923.04
2022-09-29T10:14:11.539Z,923.09
2022-09-29T10:15:12.184Z,923.07
2022-09-29T10:16:13.107Z,923.1
2022-09-29T10:17:13.633Z,923.1
2022-09-29T10:18:13.845Z,923.1
2022-09-29T10:19:14.331Z,923.1
2022-09-29T10:20:15.243Z,923.11
2022-09-29T10:21:15.574Z,923.1
2022-09-29T10:22:16.543Z,923.1
2022-09-29T10:23:16.950Z,923.12
2022-09-29T10:24:17.929Z,923.17
2022-09-29T10:25:18.295Z,923.18
2022-09-29T10:26:18.552Z,923.16
2022-09-29T10:27:19.122Z,923.22
2022-09-29T10:28:19.749Z,923.22
2022-09-29T10:29:19.953Z,923.21
2022-09-29T10:30:20.274Z,923.23
2022-09-29T10:31:20.296Z,923.26
2022-09-29T10:32:21.216Z,923.27
2022-09-29T10:33:21.421Z,923.29
2022-09-29T10:34:21.683Z,923.28
2022-09-29T10:35:22.641Z,923.26
2022-09-29T10:36:23.273Z,923.28
2022-09-29T10:37:24.206Z,923.29
2022-09-29T10:38:24.835Z,923.27
2022-09-29T10:39:25.056Z,923.27
2022-09-29T10:40:25.984Z,923.24
2022-09-29T10:41:26.756Z,923.24
2022-09-29T10:42:27.271Z,923.24
2022-09-29T10:43:28.196Z,923.24
2022-09-29T10:44:29.089Z,923.27
2022-09-29T10:45:30.040Z,923.28
2022-09-29T10:46:30.209Z,923.28
2022-09-29T10:47:31.156Z,923.31
2022-09-29T10:48:31.491Z,923.33
2022-09-29T10:49:31.724Z,923.32
2022-09-29T10:50:34.800Z,923.34
2022-09-29T10:51:33.107Z,923.34
2022-09-29T10:52:33.600Z,923.3
2022-09-29T10:53:34.525Z,923.33
2022-09-29T10:54:35.164Z,923.36
2022-09-29T10:55:36.070Z,923.34
2022-09-29T10:56:36.982Z,923.38
2022-09-29T10:57:37.331Z,923.37
2022-09-29T10:58:45.464Z,923.34
2022-09-29T10:59:38.518Z,923.37
2022-09-29T11:00:38.791Z,923.37
2022-09-29T11:01:39.175Z,923.39
2022-09-29T11:02:39.500Z,923.39
2022-09-29T11:03:40.092Z,923.39
2022-09-29T11:04:40.726Z,923.37
2022-09-29T11:05:41.082Z,923.37
2022-09-29T11:06:43.992Z,923.41
2022-09-29T11:07:42.153Z,923.39
2022-09-29T11:08:42.368Z,923.45
2022-09-29T11:09:42.717Z,923.46
2022-09-29T11:10:43.119Z,923.46
2022-09-29T11:11:43.442Z,923.43
2022-09-29T11:12:44.057Z,923.48
2022-09-29T11:13:44.268Z,923.48
2022-09-29T11:14:44.587Z,923.48
2022-09-29T11:15:45.251Z,923.5
2022-09-29T11:16:45.770Z,923.48
2022-09-29T11:17:45.889Z,923.52
2022-09-29T11:18:46.884Z,923.53
2022-09-29T11:19:47.116Z,923.53
2022-09-29T11:20:48.037Z,923.5
2022-09-29T11:21:48.412Z,923.53
2022-09-29T11:22:48.611Z,923.56
2022-09-29T11:23:49.103Z,923.52
2022-09-29T11:24:49.728Z,923.56
2022-09-29T11:25:49.960Z,923.55
2022-09-29T11:26:50.171Z,923.61
2022-09-29T11:27:51.106Z,923.62
2022-09-29T11:28:51.324Z,923.62
2022-09-29T11:29:52.253Z,923.62
2022-09-29T11:30:53.239Z,923.64
2022-09-29T11:31:54.157Z,923.63
2022-09-29T11:32:54.705Z,923.65
2022-09-29T11:33:55.344Z,923.62
2022-09-29T11:34:56.274Z,923.62
2022-09-29T11:35:56.912Z,923.65
2022-09-29T11:36:57.844Z,923.63
2022-09-29T11:37:58.329Z,923.6
2022-09-29T11:38:58.526Z,923.63
2022-09-29T11:39:58.883Z,923.61
2022-09-29T11:40:59.162Z,923.65
2022-09-29T11:41:59.494Z,923.61
2022-09-29T11:43:00.426Z,923.61
2022-09-29T11:44:00.656Z,923.63
2022-09-29T11:45:01.284Z,923.64
2022-09-29T11:46:01.969Z,923.62
2022-09-29T11:47:02.223Z,923.63
2022-09-29T11:48:02.470Z,923.62
2022-09-29T11:49:03.387Z,923.61
2022-09-29T11:50:04.455Z,923.64
2022-09-29T11:51:04.652Z,923.65
2022-09-29T11:52:04.974Z,923.64
2022-09-29T11:53:05.179Z,923.61
2022-09-29T11:54:07.167Z,923.61
2022-09-29T11:55:06.253Z,923.61
2022-09-29T11:56:06.894Z,923.59
2022-09-29T11:57:07.826Z,923.6
2022-09-29T11:58:08.902Z,923.61
2022-09-29T11:59:09.113Z,923.59
2022-09-29T12:00:09.867Z,923.64
2022-09-29T12:01:10.294Z,923.63
2022-09-29T12:02:11.230Z,923.62
2022-09-29T12:03:11.849Z,923.59
2022-09-29T12:04:12.208Z,923.64
2022-09-29T12:05:13.127Z,923.62
2022-09-29T12:06:13.742Z,923.63
2022-09-29T12:07:13.964Z,923.64
2022-09-29T12:08:14.880Z,923.64
2022-09-29T12:09:15.223Z,923.65
2022-09-29T12:10:16.140Z,923.63
2022-09-29T12:11:41.838Z,923.69
2022-09-29T12:13:06.635Z,923.71
2022-09-29T12:14:07.663Z,923.69
2022-09-29T12:15:07.933Z,923.69
2022-09-29T12:16:08.775Z,923.66
2022-09-29T12:17:08.994Z,923.67
2022-09-29T12:18:09.210Z,923.66
2022-09-29T12:19:09.824Z,923.66
2022-09-29T12:20:10.588Z,923.68
2022-09-29T12:21:14.132Z,923.68
2022-09-29T12:22:11.742Z,923.68
2022-09-29T12:23:12.474Z,923.66
2022-09-29T12:24:12.686Z,923.68
2022-09-29T12:25:13.040Z,923.67
2022-09-29T12:26:14.002Z,923.64
2022-09-29T12:27:14.199Z,923.64
2022-09-29T12:28:14.844Z,923.64
2022-09-29T12:29:15.119Z,923.63
2022-09-29T12:30:16.042Z,923.62
2022-09-29T12:31:16.677Z,923.63
2022-09-29T12:32:19.185Z,923.62
2022-09-29T12:33:17.410Z,923.61
2022-09-29T12:34:17.728Z,923.65
2022-09-29T12:35:18.666Z,923.63
2022-09-29T12:36:18.862Z,923.68
2022-09-29T12:37:19.575Z,923.66
2022-09-29T12:38:19.782Z,923.64
2022-09-29T12:39:20.285Z,923.67
2022-09-29T12:40:20.507Z,923.67